sensor_id;sensor_type;location;lat;lon;timestamp;pressure;altitude;pressure_sealevel;temperature;humidity
54876;BME280;40764;48.472;8.166;2023-03-04T00:04:42;98755.28;;;-0.21;91.88
54876;BME280;40764;48.472;8.166;2023-03-04T00:10:42;98752.41;;;-0.26;91.83
54876;BME280;40764;48.472;8.166;2023-03-04T00:16:43;98755.72;;;-0.31;91.34
54876;BME280;40764;48.472;8.166;2023-03-04T00:22:43;98753.72;;;-0.48;92.17
54876;BME280;40764;48.472;8.166;2023-03-04T00:28:43;98751.88;;;-0.54;92.84
54876;BME280;40764;48.472;8.166;2023-03-04T00:34:43;98755.16;;;-0.46;92.83
54876;BME280;40764;48.472;8.166;2023-03-04T00:40:44;98752.88;;;-0.42;91.69
54876;BME280;40764;48.472;8.166;2023-03-04T00:46:44;98756.22;;;-0.53;92.14
54876;BME280;40764;48.472;8.166;2023-03-04T00:52:45;98759.31;;;-0.56;92.04
54876;BME280;40764;48.472;8.166;2023-03-04T00:58:45;98756.81;;;-0.58;91.83
54876;BME280;40764;48.472;8.166;2023-03-04T01:04:45;98760.97;;;-0.62;92.02
54876;BME280;40764;48.472;8.166;2023-03-04T01:10:46;98756.63;;;-0.63;91.73
54876;BME280;40764;48.472;8.166;2023-03-04T01:16:48;98757.09;;;-0.86;92.73
54876;BME280;40764;48.472;8.166;2023-03-04T01:22:48;98754.63;;;-0.81;92.47
54876;BME280;40764;48.472;8.166;2023-03-04T01:28:54;98741.81;;;-0.79;92.47
54876;BME280;40764;48.472;8.166;2023-03-04T01:34:55;98742.81;;;-0.73;92.25
54876;BME280;40764;48.472;8.166;2023-03-04T01:40:55;98741.81;;;-0.79;91.72
54876;BME280;40764;48.472;8.166;2023-03-04T01:46:56;98732.75;;;-0.84;91.92
54876;BME280;40764;48.472;8.166;2023-03-04T01:52:56;98731.91;;;-0.98;92.82
54876;BME280;40764;48.472;8.166;2023-03-04T02:05:20;98731.09;;;-0.99;91.70
54876;BME280;40764;48.472;8.166;2023-03-04T02:11:21;98724.50;;;-1.03;92.12
54876;BME280;40764;48.472;8.166;2023-03-04T02:17:26;98718.72;;;-1.06;91.90
54876;BME280;40764;48.472;8.166;2023-03-04T02:23:37;98711.47;;;-0.93;91.30
54876;BME280;40764;48.472;8.166;2023-03-04T02:29:40;98718.50;;;-0.98;91.33
54876;BME280;40764;48.472;8.166;2023-03-04T02:35:40;98713.16;;;-1.11;91.03
54876;BME280;40764;48.472;8.166;2023-03-04T02:41:40;98716.44;;;-1.16;91.54
54876;BME280;40764;48.472;8.166;2023-03-04T02:47:41;98702.63;;;-1.13;91.55
54876;BME280;40764;48.472;8.166;2023-03-04T02:53:41;98709.63;;;-1.18;91.05
54876;BME280;40764;48.472;8.166;2023-03-04T02:59:42;98705.72;;;-1.22;92.06
54876;BME280;40764;48.472;8.166;2023-03-04T03:05:42;98710.47;;;-1.25;92.14
54876;BME280;40764;48.472;8.166;2023-03-04T03:11:43;98709.22;;;-1.29;91.46
54876;BME280;40764;48.472;8.166;2023-03-04T03:17:44;98703.06;;;-1.36;91.61
54876;BME280;40764;48.472;8.166;2023-03-04T03:23:44;98706.56;;;-1.29;91.69
54876;BME280;40764;48.472;8.166;2023-03-04T03:29:44;98711.50;;;-1.26;91.33
54876;BME280;40764;48.472;8.166;2023-03-04T03:35:45;98706.78;;;-1.43;91.37
54876;BME280;40764;48.472;8.166;2023-03-04T03:41:45;98706.56;;;-1.42;91.07
54876;BME280;40764;48.472;8.166;2023-03-04T03:47:46;98709.25;;;-1.42;91.31
54876;BME280;40764;48.472;8.166;2023-03-04T03:53:46;98712.94;;;-1.49;91.01
54876;BME280;40764;48.472;8.166;2023-03-04T03:59:46;98713.97;;;-1.50;90.73
54876;BME280;40764;48.472;8.166;2023-03-04T04:05:47;98700.97;;;-1.53;91.30
54876;BME280;40764;48.472;8.166;2023-03-04T04:11:47;98709.19;;;-1.81;91.23
54876;BME280;40764;48.472;8.166;2023-03-04T04:17:47;98712.69;;;-1.81;92.13
54876;BME280;40764;48.472;8.166;2023-03-04T04:23:48;98715.00;;;-1.71;91.78
54876;BME280;40764;48.472;8.166;2023-03-04T04:29:48;98703.22;;;-1.77;91.44
54876;BME280;40764;48.472;8.166;2023-03-04T04:35:48;98696.25;;;-1.65;91.69
54876;BME280;40764;48.472;8.166;2023-03-04T04:41:49;98707.59;;;-1.69;91.66
54876;BME280;40764;48.472;8.166;2023-03-04T04:47:50;98702.41;;;-1.51;90.53
54876;BME280;40764;48.472;8.166;2023-03-04T04:53:51;98707.38;;;-1.54;91.10
54876;BME280;40764;48.472;8.166;2023-03-04T04:59:51;98712.53;;;-1.73;91.51
54876;BME280;40764;48.472;8.166;2023-03-04T05:05:51;98713.16;;;-1.71;91.52
54876;BME280;40764;48.472;8.166;2023-03-04T05:11:52;98720.56;;;-1.66;91.68
54876;BME280;40764;48.472;8.166;2023-03-04T05:17:52;98712.91;;;-1.76;90.98
54876;BME280;40764;48.472;8.166;2023-03-04T05:23:52;98715.78;;;-1.97;91.53
54876;BME280;40764;48.472;8.166;2023-03-04T05:29:53;98725.81;;;-2.06;93.10
54876;BME280;40764;48.472;8.166;2023-03-04T05:35:54;98736.19;;;-1.90;92.11
54876;BME280;40764;48.472;8.166;2023-03-04T05:41:55;98731.25;;;-1.93;91.28
54876;BME280;40764;48.472;8.166;2023-03-04T05:47:55;98739.91;;;-1.91;90.81
54876;BME280;40764;48.472;8.166;2023-03-04T05:53:56;98734.53;;;-1.91;90.64
54876;BME280;40764;48.472;8.166;2023-03-04T05:59:56;98745.84;;;-2.02;90.92
54876;BME280;40764;48.472;8.166;2023-03-04T06:05:57;98731.66;;;-1.96;90.57
54876;BME280;40764;48.472;8.166;2023-03-04T06:11:57;98756.16;;;-1.99;90.51
54876;BME280;40764;48.472;8.166;2023-03-04T06:17:58;98758.25;;;-1.88;90.33
54876;BME280;40764;48.472;8.166;2023-03-04T06:23:58;98766.72;;;-1.77;89.99
54876;BME280;40764;48.472;8.166;2023-03-04T06:29:58;98770.84;;;-1.81;89.69
54876;BME280;40764;48.472;8.166;2023-03-04T06:36:02;98771.25;;;-1.84;91.42
54876;BME280;40764;48.472;8.166;2023-03-04T06:42:02;98785.72;;;-1.72;90.43
54876;BME280;40764;48.472;8.166;2023-03-04T06:48:03;98787.03;;;-1.35;90.84
54876;BME280;40764;48.472;8.166;2023-03-04T06:54:03;98793.00;;;-1.20;89.10
54876;BME280;40764;48.472;8.166;2023-03-04T07:00:04;98798.78;;;-1.23;90.78
54876;BME280;40764;48.472;8.166;2023-03-04T07:06:05;98798.19;;;-0.85;90.63
54876;BME280;40764;48.472;8.166;2023-03-04T07:12:05;98805.59;;;-0.68;89.88
54876;BME280;40764;48.472;8.166;2023-03-04T07:18:06;98814.06;;;-0.64;89.62
54876;BME280;40764;48.472;8.166;2023-03-04T07:24:06;98812.19;;;-0.50;90.09
54876;BME280;40764;48.472;8.166;2023-03-04T07:30:07;98811.97;;;-0.49;90.98
54876;BME280;40764;48.472;8.166;2023-03-04T07:36:08;98812.91;;;-0.10;89.58
54876;BME280;40764;48.472;8.166;2023-03-04T07:42:08;98816.19;;;0.05;89.15
54876;BME280;40764;48.472;8.166;2023-03-04T07:48:09;98818.75;;;0.25;88.69
54876;BME280;40764;48.472;8.166;2023-03-04T07:54:09;98812.09;;;-0.11;90.10
54876;BME280;40764;48.472;8.166;2023-03-04T08:00:12;98823.19;;;0.06;91.24
54876;BME280;40764;48.472;8.166;2023-03-04T08:06:15;98817.81;;;0.06;92.23
54876;BME280;40764;48.472;8.166;2023-03-04T08:12:15;98816.28;;;0.23;91.80
54876;BME280;40764;48.472;8.166;2023-03-04T08:18:16;98820.50;;;0.51;90.84
54876;BME280;40764;48.472;8.166;2023-03-04T08:24:16;98819.72;;;0.75;89.77
54876;BME280;40764;48.472;8.166;2023-03-04T08:30:17;98819.94;;;1.05;88.47
54876;BME280;40764;48.472;8.166;2023-03-04T08:36:17;98827.09;;;1.18;88.10
54876;BME280;40764;48.472;8.166;2023-03-04T08:42:18;98830.75;;;1.48;88.46
54876;BME280;40764;48.472;8.166;2023-03-04T08:48:19;98822.84;;;1.72;88.22
54876;BME280;40764;48.472;8.166;2023-03-04T08:54:19;98828.31;;;2.02;87.36
54876;BME280;40764;48.472;8.166;2023-03-04T09:00:19;98822.94;;;2.20;86.36
54876;BME280;40764;48.472;8.166;2023-03-04T09:06:30;98818.44;;;2.32;87.64
54876;BME280;40764;48.472;8.166;2023-03-04T09:12:30;98819.19;;;2.69;86.85
54876;BME280;40764;48.472;8.166;2023-03-04T09:18:31;98822.44;;;3.13;85.06
54876;BME280;40764;48.472;8.166;2023-03-04T09:24:50;98823.03;;;3.15;83.95
54876;BME280;40764;48.472;8.166;2023-03-04T09:30:54;98824.31;;;3.01;84.97
54876;BME280;40764;48.472;8.166;2023-03-04T09:36:54;98817.63;;;3.03;84.46
54876;BME280;40764;48.472;8.166;2023-03-04T09:42:59;98819.38;;;2.98;84.08
54876;BME280;40764;48.472;8.166;2023-03-04T09:49:02;98815.63;;;3.10;83.60
54876;BME280;40764;48.472;8.166;2023-03-04T09:55:14;98820.91;;;3.05;83.34
54876;BME280;40764;48.472;8.166;2023-03-04T10:01:24;98822.25;;;3.38;82.05
54876;BME280;40764;48.472;8.166;2023-03-04T10:07:32;98816.41;;;3.76;80.46
54876;BME280;40764;48.472;8.166;2023-03-04T10:13:46;98820.03;;;3.70;80.60
54876;BME280;40764;48.472;8.166;2023-03-04T10:26:14;98822.13;;;3.91;78.77
54876;BME280;40764;48.472;8.166;2023-03-04T10:32:19;98829.78;;;3.71;79.66
54876;BME280;40764;48.472;8.166;2023-03-04T10:38:21;98809.50;;;4.20;78.98
54876;BME280;40764;48.472;8.166;2023-03-04T10:44:23;98838.22;;;3.98;78.17
54876;BME280;40764;48.472;8.166;2023-03-04T10:50:26;98826.44;;;4.16;78.02
54876;BME280;40764;48.472;8.166;2023-03-04T11:02:33;98822.44;;;4.58;75.12
54876;BME280;40764;48.472;8.166;2023-03-04T11:08:38;98812.63;;;4.69;73.93
54876;BME280;40764;48.472;8.166;2023-03-04T11:20:44;98789.53;;;5.28;72.32
54876;BME280;40764;48.472;8.166;2023-03-04T11:26:55;98782.97;;;5.24;71.61
54876;BME280;40764;48.472;8.166;2023-03-04T11:39:51;98766.59;;;5.53;68.56
54876;BME280;40764;48.472;8.166;2023-03-04T11:46:26;98761.03;;;5.81;67.36
54876;BME280;40764;48.472;8.166;2023-03-04T11:52:46;98762.38;;;6.01;65.64
54876;BME280;40764;48.472;8.166;2023-03-04T12:05:18;98742.47;;;5.90;65.43
54876;BME280;40764;48.472;8.166;2023-03-04T12:11:51;98725.66;;;6.15;63.86
54876;BME280;40764;48.472;8.166;2023-03-04T12:24:27;98710.88;;;6.06;62.41
54876;BME280;40764;48.472;8.166;2023-03-04T12:30:52;98704.56;;;6.22;61.85
54876;BME280;40764;48.472;8.166;2023-03-04T12:37:18;98690.41;;;6.42;60.69
54876;BME280;40764;48.472;8.166;2023-03-04T12:43:45;98702.72;;;6.28;60.26
54876;BME280;40764;48.472;8.166;2023-03-04T12:50:04;98695.56;;;6.16;60.14
54876;BME280;40764;48.472;8.166;2023-03-04T12:56:24;98679.66;;;6.30;60.40
54876;BME280;40764;48.472;8.166;2023-03-04T13:02:31;98677.91;;;6.73;59.57
54876;BME280;40764;48.472;8.166;2023-03-04T13:08:58;98684.06;;;6.63;59.99
54876;BME280;40764;48.472;8.166;2023-03-04T13:27:46;98685.69;;;6.64;58.54
54876;BME280;40764;48.472;8.166;2023-03-04T13:33:51;98682.00;;;6.75;58.55
54876;BME280;40764;48.472;8.166;2023-03-04T13:52:37;98657.59;;;6.80;57.46
54876;BME280;40764;48.472;8.166;2023-03-04T13:58:38;98654.09;;;6.85;57.73
54876;BME280;40764;48.472;8.166;2023-03-04T14:04:41;98660.53;;;6.74;58.13
54876;BME280;40764;48.472;8.166;2023-03-04T14:10:42;98648.47;;;6.65;58.35
54876;BME280;40764;48.472;8.166;2023-03-04T14:16:49;98653.84;;;6.55;58.30
54876;BME280;40764;48.472;8.166;2023-03-04T14:22:50;98652.06;;;6.38;59.32
54876;BME280;40764;48.472;8.166;2023-03-04T14:28:51;98640.78;;;6.89;57.86
54876;BME280;40764;48.472;8.166;2023-03-04T14:35:00;98637.75;;;7.22;56.95
54876;BME280;40764;48.472;8.166;2023-03-04T14:41:06;98634.72;;;7.13;56.40
54876;BME280;40764;48.472;8.166;2023-03-04T14:53:53;98626.13;;;7.27;56.71
54876;BME280;40764;48.472;8.166;2023-03-04T14:59:54;98625.97;;;7.06;56.55
54876;BME280;40764;48.472;8.166;2023-03-04T15:05:55;98628.25;;;6.82;57.15
54876;BME280;40764;48.472;8.166;2023-03-04T15:12:01;98631.41;;;7.06;56.91
54876;BME280;40764;48.472;8.166;2023-03-04T15:18:29;98629.84;;;7.21;56.03
54876;BME280;40764;48.472;8.166;2023-03-04T15:24:29;98629.00;;;7.10;57.45
54876;BME280;40764;48.472;8.166;2023-03-04T15:30:32;98633.03;;;6.65;57.48
54876;BME280;40764;48.472;8.166;2023-03-04T15:36:33;98624.66;;;6.72;57.89
54876;BME280;40764;48.472;8.166;2023-03-04T15:42:33;98625.34;;;6.57;57.60
54876;BME280;40764;48.472;8.166;2023-03-04T15:48:33;98621.91;;;6.67;57.83
54876;BME280;40764;48.472;8.166;2023-03-04T15:54:34;98632.06;;;6.81;57.39
54876;BME280;40764;48.472;8.166;2023-03-04T16:00:34;98624.28;;;6.63;57.68
54876;BME280;40764;48.472;8.166;2023-03-04T16:06:35;98618.69;;;5.89;59.52
54876;BME280;40764;48.472;8.166;2023-03-04T16:12:35;98633.31;;;5.44;61.09
54876;BME280;40764;48.472;8.166;2023-03-04T16:18:36;98626.22;;;5.00;62.21
54876;BME280;40764;48.472;8.166;2023-03-04T16:24:36;98632.28;;;4.90;62.03
54876;BME280;40764;48.472;8.166;2023-03-04T16:30:37;98632.38;;;4.61;63.03
54876;BME280;40764;48.472;8.166;2023-03-04T16:36:38;98636.66;;;4.57;63.45
54876;BME280;40764;48.472;8.166;2023-03-04T16:42:38;98642.78;;;4.19;64.19
54876;BME280;40764;48.472;8.166;2023-03-04T16:48:39;98651.53;;;4.10;64.82
54876;BME280;40764;48.472;8.166;2023-03-04T16:54:40;98650.03;;;4.02;65.15
54876;BME280;40764;48.472;8.166;2023-03-04T17:00:40;98657.06;;;3.74;65.87
54876;BME280;40764;48.472;8.166;2023-03-04T17:06:40;98670.72;;;3.68;65.83
54876;BME280;40764;48.472;8.166;2023-03-04T17:12:41;98659.97;;;3.45;67.16
54876;BME280;40764;48.472;8.166;2023-03-04T17:18:42;98667.16;;;3.39;67.33
54876;BME280;40764;48.472;8.166;2023-03-04T17:24:44;98667.38;;;3.37;66.99
54876;BME280;40764;48.472;8.166;2023-03-04T17:30:45;98673.75;;;3.31;67.17
54876;BME280;40764;48.472;8.166;2023-03-04T17:36:45;98680.41;;;3.40;67.34
54876;BME280;40764;48.472;8.166;2023-03-04T17:42:45;98688.19;;;3.37;67.95
54876;BME280;40764;48.472;8.166;2023-03-04T17:48:46;98694.88;;;2.88;69.34
54876;BME280;40764;48.472;8.166;2023-03-04T17:54:46;98700.72;;;2.20;72.95
54876;BME280;40764;48.472;8.166;2023-03-04T18:00:48;98702.72;;;1.94;75.38
54876;BME280;40764;48.472;8.166;2023-03-04T18:06:50;98693.78;;;2.12;74.15
54876;BME280;40764;48.472;8.166;2023-03-04T18:12:50;98701.16;;;1.86;75.71
54876;BME280;40764;48.472;8.166;2023-03-04T18:18:52;98710.44;;;1.91;75.50
54876;BME280;40764;48.472;8.166;2023-03-04T18:24:52;98703.84;;;2.05;75.40
54876;BME280;40764;48.472;8.166;2023-03-04T18:30:53;98695.66;;;2.11;74.97
54876;BME280;40764;48.472;8.166;2023-03-04T18:36:54;98708.94;;;2.25;75.36
54876;BME280;40764;48.472;8.166;2023-03-04T18:42:54;98706.69;;;1.92;76.12
54876;BME280;40764;48.472;8.166;2023-03-04T18:49:01;98700.31;;;2.04;75.90
54876;BME280;40764;48.472;8.166;2023-03-04T18:55:02;98701.69;;;2.25;75.74
54876;BME280;40764;48.472;8.166;2023-03-04T19:01:04;98702.00;;;2.17;76.07
54876;BME280;40764;48.472;8.166;2023-03-04T19:07:05;98707.06;;;1.95;76.89
54876;BME280;40764;48.472;8.166;2023-03-04T19:13:05;98699.44;;;2.22;77.41
54876;BME280;40764;48.472;8.166;2023-03-04T19:19:06;98696.41;;;2.30;76.34
54876;BME280;40764;48.472;8.166;2023-03-04T19:25:07;98692.38;;;2.51;75.65
54876;BME280;40764;48.472;8.166;2023-03-04T19:31:08;98691.59;;;2.62;74.13
54876;BME280;40764;48.472;8.166;2023-03-04T19:37:09;98705.31;;;2.84;73.84
54876;BME280;40764;48.472;8.166;2023-03-04T19:43:09;98697.00;;;2.74;73.99
54876;BME280;40764;48.472;8.166;2023-03-04T19:49:10;98698.59;;;2.52;75.00
54876;BME280;40764;48.472;8.166;2023-03-04T19:55:10;98702.09;;;2.40;75.48
54876;BME280;40764;48.472;8.166;2023-03-04T20:01:26;98702.59;;;2.19;76.73
54876;BME280;40764;48.472;8.166;2023-03-04T20:07:27;98698.22;;;2.48;76.16
54876;BME280;40764;48.472;8.166;2023-03-04T20:13:27;98683.69;;;2.49;76.65
54876;BME280;40764;48.472;8.166;2023-03-04T20:19:29;98684.56;;;2.73;75.23
54876;BME280;40764;48.472;8.166;2023-03-04T20:25:29;98689.28;;;2.36;76.88
54876;BME280;40764;48.472;8.166;2023-03-04T20:31:31;98681.56;;;2.39;76.82
54876;BME280;40764;48.472;8.166;2023-03-04T20:37:35;98687.44;;;2.06;78.70
54876;BME280;40764;48.472;8.166;2023-03-04T20:43:35;98683.94;;;2.17;79.13
54876;BME280;40764;48.472;8.166;2023-03-04T20:49:35;98681.28;;;2.29;79.02
54876;BME280;40764;48.472;8.166;2023-03-04T20:55:36;98691.84;;;2.31;78.07
54876;BME280;40764;48.472;8.166;2023-03-04T21:01:38;98682.16;;;2.53;77.14
54876;BME280;40764;48.472;8.166;2023-03-04T21:07:39;98673.50;;;2.74;76.97
54876;BME280;40764;48.472;8.166;2023-03-04T21:13:39;98671.31;;;2.95;75.78
54876;BME280;40764;48.472;8.166;2023-03-04T21:19:41;98659.53;;;2.77;76.03
54876;BME280;40764;48.472;8.166;2023-03-04T21:25:45;98651.06;;;2.51;76.68
54876;BME280;40764;48.472;8.166;2023-03-04T21:31:49;98654.81;;;2.38;77.78
54876;BME280;40764;48.472;8.166;2023-03-04T21:37:50;98649.31;;;2.56;77.95
54876;BME280;40764;48.472;8.166;2023-03-04T21:43:51;98639.59;;;2.67;77.93
54876;BME280;40764;48.472;8.166;2023-03-04T21:49:51;98629.13;;;2.59;77.87
54876;BME280;40764;48.472;8.166;2023-03-04T21:55:51;98617.88;;;2.73;77.31
54876;BME280;40764;48.472;8.166;2023-03-04T22:01:52;98621.63;;;2.61;77.35
54876;BME280;40764;48.472;8.166;2023-03-04T22:07:54;98618.31;;;2.47;78.50
54876;BME280;40764;48.472;8.166;2023-03-04T22:13:55;98607.66;;;2.40;79.13
54876;BME280;40764;48.472;8.166;2023-03-04T22:19:56;98608.59;;;2.58;77.90
54876;BME280;40764;48.472;8.166;2023-03-04T22:26:04;98618.59;;;2.69;77.57
54876;BME280;40764;48.472;8.166;2023-03-04T22:32:05;98605.31;;;2.67;77.79
54876;BME280;40764;48.472;8.166;2023-03-04T22:38:05;98611.88;;;2.71;76.55
54876;BME280;40764;48.472;8.166;2023-03-04T22:44:06;98604.72;;;2.89;76.21
54876;BME280;40764;48.472;8.166;2023-03-04T22:50:07;98613.84;;;3.11;74.78
54876;BME280;40764;48.472;8.166;2023-03-04T22:56:08;98611.63;;;3.08;74.68
54876;BME280;40764;48.472;8.166;2023-03-04T23:02:09;98617.84;;;3.20;74.59
54876;BME280;40764;48.472;8.166;2023-03-04T23:08:09;98614.69;;;2.76;76.21
54876;BME280;40764;48.472;8.166;2023-03-04T23:14:09;98613.75;;;2.47;78.39
54876;BME280;40764;48.472;8.166;2023-03-04T23:20:13;98613.06;;;2.64;78.10
54876;BME280;40764;48.472;8.166;2023-03-04T23:26:18;98604.25;;;2.57;78.21
54876;BME280;40764;48.472;8.166;2023-03-04T23:32:19;98607.91;;;2.62;77.88
54876;BME280;40764;48.472;8.166;2023-03-04T23:38:19;98596.03;;;2.52;78.40
54876;BME280;40764;48.472;8.166;2023-03-04T23:44:20;98596.84;;;2.52;78.06
54876;BME280;40764;48.472;8.166;2023-03-04T23:50:20;98573.63;;;2.51;79.49
54876;BME280;40764;48.472;8.166;2023-03-04T23:56:24;98565.97;;;2.25;79.17
